sensor_id;sensor_type;location;lat;lon;timestamp;P1;durP1;ratioP1;P2;durP2;ratioP2
26963;SDS011;14521;48.148;-1.656;2023-05-10T00:01:14;1.98;;;0.73;;
26963;SDS011;14521;48.148;-1.656;2023-05-10T00:04:36;1.63;;;0.57;;
26963;SDS011;14521;48.148;-1.656;2023-05-10T00:07:58;2.33;;;0.77;;
26963;SDS011;14521;48.148;-1.656;2023-05-10T00:11:21;1.08;;;0.50;;
26963;SDS011;14521;48.148;-1.656;2023-05-10T00:14:44;2.20;;;0.60;;
26963;SDS011;14521;48.148;-1.656;2023-05-10T00:18:06;1.48;;;0.40;;
26963;SDS011;14521;48.148;-1.656;2023-05-10T00:21:29;1.58;;;0.50;;
26963;SDS011;14521;48.148;-1.656;2023-05-10T00:24:51;1.60;;;0.70;;
26963;SDS011;14521;48.148;-1.656;2023-05-10T00:28:13;3.72;;;0.70;;
26963;SDS011;14521;48.148;-1.656;2023-05-10T00:31:36;2.28;;;1.05;;
26963;SDS011;14521;48.148;-1.656;2023-05-10T00:34:58;4.13;;;0.88;;
26963;SDS011;14521;48.148;-1.656;2023-05-10T00:38:21;3.33;;;0.70;;
26963;SDS011;14521;48.148;-1.656;2023-05-10T00:41:43;2.25;;;0.80;;
26963;SDS011;14521;48.148;-1.656;2023-05-10T00:45:06;1.80;;;0.55;;
26963;SDS011;14521;48.148;-1.656;2023-05-10T00:48:29;1.58;;;0.43;;
26963;SDS011;14521;48.148;-1.656;2023-05-10T00:51:52;0.63;;;0.38;;
26963;SDS011;14521;48.148;-1.656;2023-05-10T00:55:14;4.45;;;0.60;;
26963;SDS011;14521;48.148;-1.656;2023-05-10T00:58:37;3.88;;;0.68;;
26963;SDS011;14521;48.148;-1.656;2023-05-10T01:02:00;3.55;;;0.70;;
26963;SDS011;14521;48.148;-1.656;2023-05-10T01:05:24;1.30;;;0.60;;
26963;SDS011;14521;48.148;-1.656;2023-05-10T01:08:46;3.58;;;0.63;;
26963;SDS011;14521;48.148;-1.656;2023-05-10T01:12:09;2.08;;;0.50;;
26963;SDS011;14521;48.148;-1.656;2023-05-10T01:15:31;2.63;;;0.50;;
26963;SDS011;14521;48.148;-1.656;2023-05-10T01:18:54;5.63;;;0.93;;
26963;SDS011;14521;48.148;-1.656;2023-05-10T01:26:12;4.63;;;1.35;;
26963;SDS011;14521;48.148;-1.656;2023-05-10T01:37:11;2.47;;;0.90;;
26963;SDS011;14521;48.148;-1.656;2023-05-10T01:48:09;2.20;;;0.70;;
26963;SDS011;14521;48.148;-1.656;2023-05-10T01:51:37;1.45;;;0.50;;
26963;SDS011;14521;48.148;-1.656;2023-05-10T01:55:09;4.32;;;0.90;;
26963;SDS011;14521;48.148;-1.656;2023-05-10T01:58:36;2.42;;;0.98;;
26963;SDS011;14521;48.148;-1.656;2023-05-10T02:02:01;1.10;;;0.65;;
26963;SDS011;14521;48.148;-1.656;2023-05-10T02:05:25;2.58;;;0.60;;
26963;SDS011;14521;48.148;-1.656;2023-05-10T02:12:13;1.70;;;0.28;;
26963;SDS011;14521;48.148;-1.656;2023-05-10T02:15:37;2.38;;;0.52;;
26963;SDS011;14521;48.148;-1.656;2023-05-10T02:19:02;2.35;;;0.70;;
26963;SDS011;14521;48.148;-1.656;2023-05-10T02:22:25;3.55;;;0.95;;
26963;SDS011;14521;48.148;-1.656;2023-05-10T02:25:49;1.50;;;0.60;;
26963;SDS011;14521;48.148;-1.656;2023-05-10T02:29:15;1.58;;;0.90;;
26963;SDS011;14521;48.148;-1.656;2023-05-10T02:32:39;1.45;;;0.40;;
26963;SDS011;14521;48.148;-1.656;2023-05-10T02:36:02;1.23;;;0.50;;
26963;SDS011;14521;48.148;-1.656;2023-05-10T02:39:25;2.58;;;0.77;;
26963;SDS011;14521;48.148;-1.656;2023-05-10T02:42:51;1.33;;;0.60;;
26963;SDS011;14521;48.148;-1.656;2023-05-10T02:46:16;3.05;;;0.75;;
26963;SDS011;14521;48.148;-1.656;2023-05-10T02:49:38;2.50;;;0.80;;
26963;SDS011;14521;48.148;-1.656;2023-05-10T02:53:01;1.58;;;0.70;;
26963;SDS011;14521;48.148;-1.656;2023-05-10T02:56:34;3.00;;;0.90;;
26963;SDS011;14521;48.148;-1.656;2023-05-10T03:00:02;2.72;;;1.13;;
26963;SDS011;14521;48.148;-1.656;2023-05-10T03:03:25;2.10;;;0.73;;
26963;SDS011;14521;48.148;-1.656;2023-05-10T03:06:47;2.58;;;0.77;;
26963;SDS011;14521;48.148;-1.656;2023-05-10T03:10:10;2.00;;;0.80;;
26963;SDS011;14521;48.148;-1.656;2023-05-10T03:13:48;4.18;;;1.00;;
26963;SDS011;14521;48.148;-1.656;2023-05-10T03:20:48;2.17;;;0.57;;
26963;SDS011;14521;48.148;-1.656;2023-05-10T03:24:12;3.05;;;1.05;;
26963;SDS011;14521;48.148;-1.656;2023-05-10T03:27:40;6.45;;;1.35;;
26963;SDS011;14521;48.148;-1.656;2023-05-10T03:31:05;2.28;;;1.00;;
26963;SDS011;14521;48.148;-1.656;2023-05-10T03:34:29;4.63;;;0.95;;
26963;SDS011;14521;48.148;-1.656;2023-05-10T03:37:53;1.83;;;0.95;;
26963;SDS011;14521;48.148;-1.656;2023-05-10T03:41:15;4.55;;;0.93;;
26963;SDS011;14521;48.148;-1.656;2023-05-10T03:44:38;4.45;;;1.17;;
26963;SDS011;14521;48.148;-1.656;2023-05-10T03:48:01;4.18;;;0.85;;
26963;SDS011;14521;48.148;-1.656;2023-05-10T03:51:23;2.67;;;0.85;;
26963;SDS011;14521;48.148;-1.656;2023-05-10T03:54:49;1.75;;;0.80;;
26963;SDS011;14521;48.148;-1.656;2023-05-10T03:58:12;3.05;;;0.85;;
26963;SDS011;14521;48.148;-1.656;2023-05-10T04:01:34;2.47;;;0.93;;
26963;SDS011;14521;48.148;-1.656;2023-05-10T04:04:57;4.82;;;1.13;;
26963;SDS011;14521;48.148;-1.656;2023-05-10T04:08:19;2.35;;;1.00;;
26963;SDS011;14521;48.148;-1.656;2023-05-10T04:11:41;3.33;;;1.08;;
26963;SDS011;14521;48.148;-1.656;2023-05-10T04:15:04;9.40;;;1.02;;
26963;SDS011;14521;48.148;-1.656;2023-05-10T04:18:28;5.75;;;1.10;;
26963;SDS011;14521;48.148;-1.656;2023-05-10T04:21:50;2.70;;;1.00;;
26963;SDS011;14521;48.148;-1.656;2023-05-10T04:25:12;3.88;;;0.90;;
26963;SDS011;14521;48.148;-1.656;2023-05-10T04:28:35;2.95;;;1.05;;
26963;SDS011;14521;48.148;-1.656;2023-05-10T04:31:57;4.13;;;0.93;;
26963;SDS011;14521;48.148;-1.656;2023-05-10T04:35:19;3.05;;;0.95;;
26963;SDS011;14521;48.148;-1.656;2023-05-10T04:38:41;1.92;;;0.80;;
26963;SDS011;14521;48.148;-1.656;2023-05-10T04:42:04;3.88;;;1.50;;
26963;SDS011;14521;48.148;-1.656;2023-05-10T04:45:27;3.47;;;0.80;;
26963;SDS011;14521;48.148;-1.656;2023-05-10T04:48:49;5.18;;;0.93;;
26963;SDS011;14521;48.148;-1.656;2023-05-10T04:52:12;1.63;;;0.73;;
26963;SDS011;14521;48.148;-1.656;2023-05-10T04:55:34;4.05;;;1.30;;
26963;SDS011;14521;48.148;-1.656;2023-05-10T04:58:57;4.93;;;0.95;;
26963;SDS011;14521;48.148;-1.656;2023-05-10T05:02:19;2.88;;;0.88;;
26963;SDS011;14521;48.148;-1.656;2023-05-10T05:05:41;3.28;;;1.10;;
26963;SDS011;14521;48.148;-1.656;2023-05-10T05:09:05;2.45;;;1.20;;
26963;SDS011;14521;48.148;-1.656;2023-05-10T05:12:27;1.30;;;0.65;;
26963;SDS011;14521;48.148;-1.656;2023-05-10T05:15:49;2.63;;;0.98;;
26963;SDS011;14521;48.148;-1.656;2023-05-10T05:19:11;3.28;;;0.90;;
26963;SDS011;14521;48.148;-1.656;2023-05-10T05:22:35;3.50;;;0.88;;
26963;SDS011;14521;48.148;-1.656;2023-05-10T05:25:58;4.17;;;0.80;;
26963;SDS011;14521;48.148;-1.656;2023-05-10T05:29:20;6.47;;;1.23;;
26963;SDS011;14521;48.148;-1.656;2023-05-10T05:32:43;8.95;;;1.30;;
26963;SDS011;14521;48.148;-1.656;2023-05-10T05:36:05;8.10;;;1.42;;
26963;SDS011;14521;48.148;-1.656;2023-05-10T05:39:28;3.38;;;1.00;;
26963;SDS011;14521;48.148;-1.656;2023-05-10T05:42:50;6.68;;;1.00;;
26963;SDS011;14521;48.148;-1.656;2023-05-10T05:46:12;6.60;;;1.10;;
26963;SDS011;14521;48.148;-1.656;2023-05-10T05:49:34;5.00;;;1.00;;
26963;SDS011;14521;48.148;-1.656;2023-05-10T05:52:57;3.83;;;1.20;;
26963;SDS011;14521;48.148;-1.656;2023-05-10T05:56:19;3.45;;;0.90;;
26963;SDS011;14521;48.148;-1.656;2023-05-10T05:59:45;2.17;;;0.70;;
26963;SDS011;14521;48.148;-1.656;2023-05-10T06:03:08;3.55;;;0.95;;
26963;SDS011;14521;48.148;-1.656;2023-05-10T06:06:30;4.22;;;1.02;;
26963;SDS011;14521;48.148;-1.656;2023-05-10T06:09:53;2.63;;;1.05;;
26963;SDS011;14521;48.148;-1.656;2023-05-10T06:13:16;4.82;;;1.00;;
26963;SDS011;14521;48.148;-1.656;2023-05-10T06:16:38;3.75;;;0.85;;
26963;SDS011;14521;48.148;-1.656;2023-05-10T06:20:01;5.72;;;0.98;;
26963;SDS011;14521;48.148;-1.656;2023-05-10T06:23:23;1.98;;;0.80;;
26963;SDS011;14521;48.148;-1.656;2023-05-10T06:26:47;4.05;;;1.35;;
26963;SDS011;14521;48.148;-1.656;2023-05-10T06:30:11;7.23;;;1.30;;
26963;SDS011;14521;48.148;-1.656;2023-05-10T06:33:35;15.07;;;1.05;;
26963;SDS011;14521;48.148;-1.656;2023-05-10T06:36:57;4.88;;;1.08;;
26963;SDS011;14521;48.148;-1.656;2023-05-10T06:40:19;8.57;;;1.30;;
26963;SDS011;14521;48.148;-1.656;2023-05-10T06:43:42;8.45;;;1.10;;
26963;SDS011;14521;48.148;-1.656;2023-05-10T06:47:04;3.28;;;1.00;;
26963;SDS011;14521;48.148;-1.656;2023-05-10T06:50:27;3.38;;;1.00;;
26963;SDS011;14521;48.148;-1.656;2023-05-10T06:53:49;2.92;;;0.82;;
26963;SDS011;14521;48.148;-1.656;2023-05-10T06:57:12;4.40;;;1.00;;
26963;SDS011;14521;48.148;-1.656;2023-05-10T07:00:52;3.78;;;0.60;;
26963;SDS011;14521;48.148;-1.656;2023-05-10T07:04:14;6.70;;;1.00;;
26963;SDS011;14521;48.148;-1.656;2023-05-10T07:07:36;1.75;;;0.90;;
26963;SDS011;14521;48.148;-1.656;2023-05-10T07:11:03;2.55;;;0.73;;
26963;SDS011;14521;48.148;-1.656;2023-05-10T07:14:26;4.20;;;1.00;;
26963;SDS011;14521;48.148;-1.656;2023-05-10T07:17:48;2.95;;;0.70;;
26963;SDS011;14521;48.148;-1.656;2023-05-10T07:21:10;7.45;;;1.58;;
26963;SDS011;14521;48.148;-1.656;2023-05-10T07:24:33;3.85;;;1.15;;
26963;SDS011;14521;48.148;-1.656;2023-05-10T07:27:55;5.28;;;1.15;;
26963;SDS011;14521;48.148;-1.656;2023-05-10T07:31:17;4.07;;;0.90;;
26963;SDS011;14521;48.148;-1.656;2023-05-10T07:34:40;24.95;;;1.48;;
26963;SDS011;14521;48.148;-1.656;2023-05-10T07:38:03;4.82;;;1.40;;
26963;SDS011;14521;48.148;-1.656;2023-05-10T07:41:25;5.22;;;0.90;;
26963;SDS011;14521;48.148;-1.656;2023-05-10T07:44:47;3.95;;;1.15;;
26963;SDS011;14521;48.148;-1.656;2023-05-10T07:48:10;7.63;;;1.30;;
26963;SDS011;14521;48.148;-1.656;2023-05-10T07:51:32;5.68;;;1.00;;
26963;SDS011;14521;48.148;-1.656;2023-05-10T07:54:54;4.20;;;1.00;;
26963;SDS011;14521;48.148;-1.656;2023-05-10T07:58:18;3.42;;;1.00;;
26963;SDS011;14521;48.148;-1.656;2023-05-10T08:01:41;3.20;;;1.02;;
26963;SDS011;14521;48.148;-1.656;2023-05-10T08:05:04;3.47;;;1.17;;
26963;SDS011;14521;48.148;-1.656;2023-05-10T08:08:27;2.55;;;1.10;;
26963;SDS011;14521;48.148;-1.656;2023-05-10T08:11:49;5.32;;;1.27;;
26963;SDS011;14521;48.148;-1.656;2023-05-10T08:15:12;3.47;;;0.98;;
26963;SDS011;14521;48.148;-1.656;2023-05-10T08:18:34;3.50;;;1.08;;
26963;SDS011;14521;48.148;-1.656;2023-05-10T08:21:56;3.30;;;1.42;;
26963;SDS011;14521;48.148;-1.656;2023-05-10T08:25:19;2.58;;;0.90;;
26963;SDS011;14521;48.148;-1.656;2023-05-10T08:28:41;3.85;;;1.10;;
26963;SDS011;14521;48.148;-1.656;2023-05-10T08:32:03;9.50;;;4.88;;
26963;SDS011;14521;48.148;-1.656;2023-05-10T08:35:26;11.55;;;4.07;;
26963;SDS011;14521;48.148;-1.656;2023-05-10T08:38:49;9.43;;;2.03;;
26963;SDS011;14521;48.148;-1.656;2023-05-10T08:42:13;3.28;;;1.75;;
26963;SDS011;14521;48.148;-1.656;2023-05-10T08:45:43;4.95;;;2.60;;
26963;SDS011;14521;48.148;-1.656;2023-05-10T08:49:09;7.07;;;2.67;;
26963;SDS011;14521;48.148;-1.656;2023-05-10T08:52:38;8.02;;;2.60;;
26963;SDS011;14521;48.148;-1.656;2023-05-10T08:56:02;8.80;;;2.20;;
26963;SDS011;14521;48.148;-1.656;2023-05-10T08:59:25;5.30;;;2.22;;
26963;SDS011;14521;48.148;-1.656;2023-05-10T09:02:48;10.10;;;2.10;;
26963;SDS011;14521;48.148;-1.656;2023-05-10T09:06:12;2.63;;;1.77;;
26963;SDS011;14521;48.148;-1.656;2023-05-10T09:09:34;5.47;;;2.15;;
26963;SDS011;14521;48.148;-1.656;2023-05-10T09:12:58;6.03;;;1.88;;
26963;SDS011;14521;48.148;-1.656;2023-05-10T09:16:20;3.60;;;2.50;;
26963;SDS011;14521;48.148;-1.656;2023-05-10T09:19:44;5.03;;;1.45;;
26963;SDS011;14521;48.148;-1.656;2023-05-10T09:23:07;4.43;;;1.45;;
26963;SDS011;14521;48.148;-1.656;2023-05-10T09:26:29;3.90;;;1.60;;
26963;SDS011;14521;48.148;-1.656;2023-05-10T09:29:52;2.65;;;1.30;;
26963;SDS011;14521;48.148;-1.656;2023-05-10T09:33:16;5.75;;;2.00;;
26963;SDS011;14521;48.148;-1.656;2023-05-10T09:36:50;4.63;;;1.35;;
26963;SDS011;14521;48.148;-1.656;2023-05-10T09:40:14;3.10;;;1.20;;
26963;SDS011;14521;48.148;-1.656;2023-05-10T09:43:37;1.77;;;1.02;;
26963;SDS011;14521;48.148;-1.656;2023-05-10T09:47:00;3.50;;;1.20;;
26963;SDS011;14521;48.148;-1.656;2023-05-10T09:50:23;5.55;;;1.15;;
26963;SDS011;14521;48.148;-1.656;2023-05-10T09:53:45;5.50;;;1.85;;
26963;SDS011;14521;48.148;-1.656;2023-05-10T09:57:09;5.50;;;1.35;;
26963;SDS011;14521;48.148;-1.656;2023-05-10T10:00:43;3.57;;;1.17;;
26963;SDS011;14521;48.148;-1.656;2023-05-10T10:04:07;3.92;;;1.02;;
26963;SDS011;14521;48.148;-1.656;2023-05-10T10:07:30;2.30;;;0.90;;
26963;SDS011;14521;48.148;-1.656;2023-05-10T10:10:53;5.68;;;0.95;;
26963;SDS011;14521;48.148;-1.656;2023-05-10T10:14:17;3.92;;;1.05;;
26963;SDS011;14521;48.148;-1.656;2023-05-10T10:17:40;2.63;;;1.13;;
26963;SDS011;14521;48.148;-1.656;2023-05-10T10:21:05;1.52;;;0.82;;
26963;SDS011;14521;48.148;-1.656;2023-05-10T10:24:29;7.35;;;1.10;;
26963;SDS011;14521;48.148;-1.656;2023-05-10T10:35:20;4.10;;;0.88;;
26963;SDS011;14521;48.148;-1.656;2023-05-10T10:42:08;1.95;;;1.00;;
26963;SDS011;14521;48.148;-1.656;2023-05-10T10:45:30;10.18;;;0.90;;
26963;SDS011;14521;48.148;-1.656;2023-05-10T10:49:08;2.55;;;0.70;;
26963;SDS011;14521;48.148;-1.656;2023-05-10T10:52:32;1.48;;;0.70;;
26963;SDS011;14521;48.148;-1.656;2023-05-10T10:56:10;1.48;;;0.50;;
26963;SDS011;14521;48.148;-1.656;2023-05-10T10:59:35;1.40;;;0.52;;
26963;SDS011;14521;48.148;-1.656;2023-05-10T11:10:03;5.57;;;0.90;;
26963;SDS011;14521;48.148;-1.656;2023-05-10T11:13:27;3.00;;;0.90;;
26963;SDS011;14521;48.148;-1.656;2023-05-10T11:16:52;5.70;;;0.85;;
26963;SDS011;14521;48.148;-1.656;2023-05-10T11:20:14;2.67;;;0.80;;
26963;SDS011;14521;48.148;-1.656;2023-05-10T11:27:08;1.40;;;0.73;;
26963;SDS011;14521;48.148;-1.656;2023-05-10T11:30:32;3.25;;;0.90;;
26963;SDS011;14521;48.148;-1.656;2023-05-10T11:33:58;2.38;;;0.80;;
26963;SDS011;14521;48.148;-1.656;2023-05-10T11:37:23;2.55;;;0.80;;
26963;SDS011;14521;48.148;-1.656;2023-05-10T11:40:45;0.93;;;0.70;;
26963;SDS011;14521;48.148;-1.656;2023-05-10T11:44:08;2.60;;;0.90;;
26963;SDS011;14521;48.148;-1.656;2023-05-10T11:47:31;4.82;;;1.92;;
26963;SDS011;14521;48.148;-1.656;2023-05-10T11:50:53;2.20;;;0.70;;
26963;SDS011;14521;48.148;-1.656;2023-05-10T11:57:40;2.63;;;0.70;;
26963;SDS011;14521;48.148;-1.656;2023-05-10T12:01:05;2.28;;;0.52;;
26963;SDS011;14521;48.148;-1.656;2023-05-10T12:04:29;2.90;;;0.70;;
26963;SDS011;14521;48.148;-1.656;2023-05-10T12:07:52;0.70;;;0.50;;
26963;SDS011;14521;48.148;-1.656;2023-05-10T12:11:14;1.63;;;0.60;;
26963;SDS011;14521;48.148;-1.656;2023-05-10T12:14:37;1.63;;;0.60;;
26963;SDS011;14521;48.148;-1.656;2023-05-10T12:17:59;0.93;;;0.40;;
26963;SDS011;14521;48.148;-1.656;2023-05-10T12:21:23;2.83;;;0.95;;
26963;SDS011;14521;48.148;-1.656;2023-05-10T12:24:46;2.45;;;0.75;;
26963;SDS011;14521;48.148;-1.656;2023-05-10T12:28:08;0.68;;;0.50;;
26963;SDS011;14521;48.148;-1.656;2023-05-10T12:31:31;0.57;;;0.50;;
26963;SDS011;14521;48.148;-1.656;2023-05-10T12:34:53;3.28;;;0.70;;
26963;SDS011;14521;48.148;-1.656;2023-05-10T12:38:29;1.13;;;0.50;;
26963;SDS011;14521;48.148;-1.656;2023-05-10T12:41:54;1.27;;;0.40;;
26963;SDS011;14521;48.148;-1.656;2023-05-10T12:45:17;2.00;;;0.60;;
26963;SDS011;14521;48.148;-1.656;2023-05-10T12:48:40;1.00;;;0.47;;
26963;SDS011;14521;48.148;-1.656;2023-05-10T12:52:03;1.73;;;0.80;;
26963;SDS011;14521;48.148;-1.656;2023-05-10T12:55:26;1.00;;;0.50;;
26963;SDS011;14521;48.148;-1.656;2023-05-10T12:58:48;4.38;;;0.50;;
26963;SDS011;14521;48.148;-1.656;2023-05-10T13:02:10;1.00;;;0.50;;
26963;SDS011;14521;48.148;-1.656;2023-05-10T13:05:32;4.53;;;0.63;;
26963;SDS011;14521;48.148;-1.656;2023-05-10T13:08:55;0.70;;;0.40;;
26963;SDS011;14521;48.148;-1.656;2023-05-10T13:12:19;5.40;;;0.50;;
26963;SDS011;14521;48.148;-1.656;2023-05-10T13:15:41;0.57;;;0.40;;
26963;SDS011;14521;48.148;-1.656;2023-05-10T13:19:03;0.98;;;0.43;;
26963;SDS011;14521;48.148;-1.656;2023-05-10T13:22:26;1.58;;;0.60;;
26963;SDS011;14521;48.148;-1.656;2023-05-10T13:26:00;0.93;;;0.57;;
26963;SDS011;14521;48.148;-1.656;2023-05-10T13:29:23;1.70;;;0.60;;
26963;SDS011;14521;48.148;-1.656;2023-05-10T13:32:45;1.83;;;0.30;;
26963;SDS011;14521;48.148;-1.656;2023-05-10T13:36:07;0.90;;;0.35;;
26963;SDS011;14521;48.148;-1.656;2023-05-10T13:39:31;1.73;;;0.82;;
26963;SDS011;14521;48.148;-1.656;2023-05-10T13:42:55;1.55;;;0.40;;
26963;SDS011;14521;48.148;-1.656;2023-05-10T13:46:18;1.35;;;1.05;;
26963;SDS011;14521;48.148;-1.656;2023-05-10T13:49:41;2.50;;;0.40;;
26963;SDS011;14521;48.148;-1.656;2023-05-10T13:53:03;1.75;;;0.43;;
26963;SDS011;14521;48.148;-1.656;2023-05-10T13:56:25;0.73;;;0.32;;
26963;SDS011;14521;48.148;-1.656;2023-05-10T13:59:48;1.35;;;0.60;;
26963;SDS011;14521;48.148;-1.656;2023-05-10T14:03:10;1.52;;;0.60;;
26963;SDS011;14521;48.148;-1.656;2023-05-10T14:06:33;4.45;;;0.60;;
26963;SDS011;14521;48.148;-1.656;2023-05-10T14:09:55;0.52;;;0.30;;
26963;SDS011;14521;48.148;-1.656;2023-05-10T14:13:17;1.77;;;0.60;;
26963;SDS011;14521;48.148;-1.656;2023-05-10T14:16:43;4.35;;;0.32;;
26963;SDS011;14521;48.148;-1.656;2023-05-10T14:20:06;1.02;;;0.55;;
26963;SDS011;14521;48.148;-1.656;2023-05-10T14:23:30;1.67;;;0.47;;
26963;SDS011;14521;48.148;-1.656;2023-05-10T14:26:52;1.52;;;0.40;;
26963;SDS011;14521;48.148;-1.656;2023-05-10T14:30:15;1.00;;;0.50;;
26963;SDS011;14521;48.148;-1.656;2023-05-10T14:33:37;1.15;;;0.50;;
26963;SDS011;14521;48.148;-1.656;2023-05-10T14:37:00;1.38;;;0.70;;
26963;SDS011;14521;48.148;-1.656;2023-05-10T14:40:22;2.15;;;0.50;;
26963;SDS011;14521;48.148;-1.656;2023-05-10T14:43:45;1.25;;;0.40;;
26963;SDS011;14521;48.148;-1.656;2023-05-10T14:47:07;0.90;;;0.40;;
26963;SDS011;14521;48.148;-1.656;2023-05-10T14:50:32;1.25;;;0.40;;
26963;SDS011;14521;48.148;-1.656;2023-05-10T14:53:58;2.28;;;0.40;;
26963;SDS011;14521;48.148;-1.656;2023-05-10T14:57:20;1.13;;;0.43;;
26963;SDS011;14521;48.148;-1.656;2023-05-10T15:00:43;1.10;;;0.30;;
26963;SDS011;14521;48.148;-1.656;2023-05-10T15:04:05;6.65;;;0.30;;
26963;SDS011;14521;48.148;-1.656;2023-05-10T15:07:28;1.90;;;0.50;;
26963;SDS011;14521;48.148;-1.656;2023-05-10T15:10:51;0.82;;;0.40;;
26963;SDS011;14521;48.148;-1.656;2023-05-10T15:14:13;1.85;;;0.50;;
26963;SDS011;14521;48.148;-1.656;2023-05-10T15:17:35;4.60;;;0.38;;
26963;SDS011;14521;48.148;-1.656;2023-05-10T15:20:58;3.65;;;0.52;;
26963;SDS011;14521;48.148;-1.656;2023-05-10T15:24:20;3.70;;;0.60;;
26963;SDS011;14521;48.148;-1.656;2023-05-10T15:27:43;4.50;;;0.60;;
26963;SDS011;14521;48.148;-1.656;2023-05-10T15:31:05;1.10;;;0.63;;
26963;SDS011;14521;48.148;-1.656;2023-05-10T15:34:27;1.92;;;0.43;;
26963;SDS011;14521;48.148;-1.656;2023-05-10T15:37:53;0.63;;;0.30;;
26963;SDS011;14521;48.148;-1.656;2023-05-10T15:41:16;1.35;;;0.40;;
26963;SDS011;14521;48.148;-1.656;2023-05-10T15:44:38;2.08;;;0.50;;
26963;SDS011;14521;48.148;-1.656;2023-05-10T15:48:00;1.58;;;0.38;;
26963;SDS011;14521;48.148;-1.656;2023-05-10T15:51:23;0.88;;;0.45;;
26963;SDS011;14521;48.148;-1.656;2023-05-10T15:54:45;1.05;;;0.45;;
26963;SDS011;14521;48.148;-1.656;2023-05-10T15:58:07;1.80;;;0.50;;
26963;SDS011;14521;48.148;-1.656;2023-05-10T16:01:30;0.28;;;0.25;;
26963;SDS011;14521;48.148;-1.656;2023-05-10T16:04:53;1.75;;;0.65;;
26963;SDS011;14521;48.148;-1.656;2023-05-10T16:08:15;0.40;;;0.40;;
26963;SDS011;14521;48.148;-1.656;2023-05-10T16:11:38;4.70;;;0.38;;
26963;SDS011;14521;48.148;-1.656;2023-05-10T16:15:00;1.80;;;0.30;;
26963;SDS011;14521;48.148;-1.656;2023-05-10T16:18:23;0.70;;;0.40;;
26963;SDS011;14521;48.148;-1.656;2023-05-10T16:21:46;1.42;;;0.55;;
26963;SDS011;14521;48.148;-1.656;2023-05-10T16:25:08;0.93;;;0.40;;
26963;SDS011;14521;48.148;-1.656;2023-05-10T16:28:34;1.20;;;0.60;;
26963;SDS011;14521;48.148;-1.656;2023-05-10T16:31:56;2.53;;;0.40;;
26963;SDS011;14521;48.148;-1.656;2023-05-10T16:35:19;1.25;;;0.35;;
26963;SDS011;14521;48.148;-1.656;2023-05-10T16:38:41;3.00;;;0.60;;
26963;SDS011;14521;48.148;-1.656;2023-05-10T16:42:03;0.63;;;0.38;;
26963;SDS011;14521;48.148;-1.656;2023-05-10T16:45:26;1.95;;;0.52;;
26963;SDS011;14521;48.148;-1.656;2023-05-10T16:48:48;3.38;;;0.43;;
26963;SDS011;14521;48.148;-1.656;2023-05-10T16:52:10;2.50;;;0.90;;
26963;SDS011;14521;48.148;-1.656;2023-05-10T16:55:33;2.80;;;1.30;;
26963;SDS011;14521;48.148;-1.656;2023-05-10T16:58:55;8.88;;;1.38;;
26963;SDS011;14521;48.148;-1.656;2023-05-10T17:02:17;4.15;;;0.88;;
26963;SDS011;14521;48.148;-1.656;2023-05-10T17:05:40;5.93;;;1.60;;
26963;SDS011;14521;48.148;-1.656;2023-05-10T17:09:03;5.93;;;1.60;;
26963;SDS011;14521;48.148;-1.656;2023-05-10T17:12:26;5.90;;;1.88;;
26963;SDS011;14521;48.148;-1.656;2023-05-10T17:15:48;16.92;;;9.63;;
26963;SDS011;14521;48.148;-1.656;2023-05-10T17:19:11;21.10;;;13.88;;
26963;SDS011;14521;48.148;-1.656;2023-05-10T17:22:33;35.38;;;22.52;;
26963;SDS011;14521;48.148;-1.656;2023-05-10T17:25:55;46.45;;;32.72;;
26963;SDS011;14521;48.148;-1.656;2023-05-10T17:29:21;45.83;;;25.13;;
26963;SDS011;14521;48.148;-1.656;2023-05-10T17:32:44;41.13;;;29.25;;
26963;SDS011;14521;48.148;-1.656;2023-05-10T17:36:06;31.83;;;23.77;;
26963;SDS011;14521;48.148;-1.656;2023-05-10T17:39:28;35.55;;;25.30;;
26963;SDS011;14521;48.148;-1.656;2023-05-10T17:42:51;30.23;;;21.35;;
26963;SDS011;14521;48.148;-1.656;2023-05-10T17:46:13;28.85;;;22.05;;
26963;SDS011;14521;48.148;-1.656;2023-05-10T17:49:36;33.97;;;18.55;;
26963;SDS011;14521;48.148;-1.656;2023-05-10T17:52:58;18.42;;;13.68;;
26963;SDS011;14521;48.148;-1.656;2023-05-10T17:56:20;20.88;;;15.57;;
26963;SDS011;14521;48.148;-1.656;2023-05-10T17:59:43;17.20;;;12.80;;
26963;SDS011;14521;48.148;-1.656;2023-05-10T18:03:05;18.50;;;13.43;;
26963;SDS011;14521;48.148;-1.656;2023-05-10T18:06:27;18.27;;;12.50;;
26963;SDS011;14521;48.148;-1.656;2023-05-10T18:09:50;18.48;;;10.93;;
26963;SDS011;14521;48.148;-1.656;2023-05-10T18:13:12;21.90;;;11.23;;
26963;SDS011;14521;48.148;-1.656;2023-05-10T18:16:34;18.20;;;11.85;;
26963;SDS011;14521;48.148;-1.656;2023-05-10T18:19:57;24.00;;;12.85;;
26963;SDS011;14521;48.148;-1.656;2023-05-10T18:23:19;15.10;;;11.90;;
26963;SDS011;14521;48.148;-1.656;2023-05-10T18:26:42;15.15;;;12.23;;
26963;SDS011;14521;48.148;-1.656;2023-05-10T18:30:05;21.33;;;12.02;;
26963;SDS011;14521;48.148;-1.656;2023-05-10T18:33:30;15.13;;;12.05;;
26963;SDS011;14521;48.148;-1.656;2023-05-10T18:36:52;12.23;;;10.82;;
26963;SDS011;14521;48.148;-1.656;2023-05-10T18:40:15;14.48;;;11.13;;
26963;SDS011;14521;48.148;-1.656;2023-05-10T18:43:38;12.93;;;10.15;;
26963;SDS011;14521;48.148;-1.656;2023-05-10T18:47:01;10.75;;;8.02;;
26963;SDS011;14521;48.148;-1.656;2023-05-10T18:50:24;12.85;;;9.57;;
26963;SDS011;14521;48.148;-1.656;2023-05-10T18:53:46;15.02;;;8.00;;
26963;SDS011;14521;48.148;-1.656;2023-05-10T18:57:10;9.88;;;6.93;;
26963;SDS011;14521;48.148;-1.656;2023-05-10T19:00:32;14.07;;;6.75;;
26963;SDS011;14521;48.148;-1.656;2023-05-10T19:03:55;6.60;;;5.60;;
26963;SDS011;14521;48.148;-1.656;2023-05-10T19:07:17;8.52;;;6.00;;
26963;SDS011;14521;48.148;-1.656;2023-05-10T19:10:39;7.03;;;5.10;;
26963;SDS011;14521;48.148;-1.656;2023-05-10T19:14:02;11.65;;;4.88;;
26963;SDS011;14521;48.148;-1.656;2023-05-10T19:17:26;6.50;;;5.00;;
26963;SDS011;14521;48.148;-1.656;2023-05-10T19:20:52;4.70;;;4.30;;
26963;SDS011;14521;48.148;-1.656;2023-05-10T19:24:17;7.68;;;5.05;;
26963;SDS011;14521;48.148;-1.656;2023-05-10T19:27:40;6.88;;;3.97;;
26963;SDS011;14521;48.148;-1.656;2023-05-10T19:31:02;4.47;;;3.88;;
26963;SDS011;14521;48.148;-1.656;2023-05-10T19:34:25;4.60;;;3.50;;
26963;SDS011;14521;48.148;-1.656;2023-05-10T19:37:47;7.78;;;4.20;;
26963;SDS011;14521;48.148;-1.656;2023-05-10T19:41:11;7.43;;;4.72;;
26963;SDS011;14521;48.148;-1.656;2023-05-10T19:44:33;6.00;;;4.30;;
26963;SDS011;14521;48.148;-1.656;2023-05-10T19:47:56;5.00;;;4.47;;
26963;SDS011;14521;48.148;-1.656;2023-05-10T19:51:18;4.63;;;4.07;;
26963;SDS011;14521;48.148;-1.656;2023-05-10T19:54:41;7.40;;;4.18;;
26963;SDS011;14521;48.148;-1.656;2023-05-10T19:58:04;7.38;;;3.80;;
26963;SDS011;14521;48.148;-1.656;2023-05-10T20:01:27;6.07;;;4.05;;
26963;SDS011;14521;48.148;-1.656;2023-05-10T20:04:49;4.30;;;3.95;;
26963;SDS011;14521;48.148;-1.656;2023-05-10T20:08:12;4.82;;;3.70;;
26963;SDS011;14521;48.148;-1.656;2023-05-10T20:11:34;4.00;;;3.65;;
26963;SDS011;14521;48.148;-1.656;2023-05-10T20:14:56;12.50;;;3.60;;
26963;SDS011;14521;48.148;-1.656;2023-05-10T20:18:19;4.88;;;3.13;;
26963;SDS011;14521;48.148;-1.656;2023-05-10T20:21:41;9.75;;;3.42;;
26963;SDS011;14521;48.148;-1.656;2023-05-10T20:25:04;6.30;;;3.33;;
26963;SDS011;14521;48.148;-1.656;2023-05-10T20:28:26;3.75;;;3.35;;
26963;SDS011;14521;48.148;-1.656;2023-05-10T20:31:49;4.13;;;2.90;;
26963;SDS011;14521;48.148;-1.656;2023-05-10T20:35:12;4.57;;;3.30;;
26963;SDS011;14521;48.148;-1.656;2023-05-10T20:38:34;6.00;;;2.92;;
26963;SDS011;14521;48.148;-1.656;2023-05-10T20:41:57;3.42;;;2.90;;
26963;SDS011;14521;48.148;-1.656;2023-05-10T20:45:20;3.20;;;3.00;;
26963;SDS011;14521;48.148;-1.656;2023-05-10T20:48:43;4.68;;;3.17;;
26963;SDS011;14521;48.148;-1.656;2023-05-10T20:52:05;3.58;;;3.22;;
26963;SDS011;14521;48.148;-1.656;2023-05-10T20:55:27;7.65;;;3.80;;